Terminal Aerodrome Forecast
Issued by NWS

Home | Current Version | Previous Version | Graphics & Text | Print | Product List | Glossary Off
Versions: 1 2 3 4 5 6 7 8 9 10 11 12

000
FTUS43 KICT 041745
TAFHUT
TAF
KHUT 041745Z 0418/0518 17007KT P6SM VCSH OVC050
      TEMPO 0418/0422 6SM -RA OVC040
     FM042200 17017KT P6SM VCSH OVC040
     FM050000 19007KT P6SM VCTS OVC035CB=

USA.gov is the U.S. government's official web portal to all federal, state and local government web resources and services.